createdAt,value
2018-08-02T00:00:14.342Z,20.05
2018-08-02T00:01:19.686Z,20.06
2018-08-02T00:02:24.341Z,20.11
2018-08-02T00:03:30.493Z,20.11
2018-08-02T00:04:35.162Z,20.09
2018-08-02T00:05:40.474Z,20.11
2018-08-02T00:06:49.359Z,20.08
2018-08-02T00:07:54.992Z,19.99
2018-08-02T00:08:59.723Z,20.03
2018-08-02T00:10:04.476Z,20.01
2018-08-02T00:11:09.147Z,19.96
2018-08-02T00:12:13.702Z,19.73
2018-08-02T00:13:18.631Z,19.53
2018-08-02T00:14:23.203Z,19.45
2018-08-02T00:15:27.780Z,19.44
2018-08-02T00:16:32.366Z,19.24
2018-08-02T00:17:38.403Z,19.13
2018-08-02T00:18:43.568Z,19.01
2018-08-02T00:19:48.626Z,19.01
2018-08-02T00:20:53.356Z,18.99
2018-08-02T00:21:58.034Z,19.06
2018-08-02T00:23:04.594Z,19.19
2018-08-02T00:24:09.437Z,19.21
2018-08-02T00:25:14.177Z,19.23
2018-08-02T00:26:19.188Z,19.28
2018-08-02T00:27:23.866Z,19.41
2018-08-02T00:28:28.585Z,19.53
2018-08-02T00:29:33.350Z,19.71
2018-08-02T00:30:38.049Z,19.66
2018-08-02T00:31:47.018Z,19.36
2018-08-02T00:32:56.032Z,19.33
2018-08-02T00:34:02.380Z,19.31
2018-08-02T00:35:08.378Z,19.29
2018-08-02T00:36:13.031Z,19.27
2018-08-02T00:37:17.744Z,19.33
2018-08-02T00:38:22.408Z,19.28
2018-08-02T00:39:27.456Z,19.13
2018-08-02T00:40:32.161Z,19.09
2018-08-02T00:41:36.826Z,19.03
2018-08-02T00:42:42.218Z,19.09
2018-08-02T00:43:47.836Z,19.20
2018-08-02T00:44:52.864Z,19.18
2018-08-02T00:45:57.545Z,19.07
2018-08-02T00:47:02.531Z,19.02
2018-08-02T00:48:07.292Z,18.89
2018-08-02T00:49:11.837Z,18.90
2018-08-02T00:50:16.404Z,19.03
2018-08-02T00:51:21.727Z,19.10
2018-08-02T00:52:26.723Z,19.23
2018-08-02T00:53:31.332Z,19.35
2018-08-02T00:54:39.474Z,19.47
2018-08-02T00:55:44.050Z,19.56
2018-08-02T00:56:50.569Z,19.55
2018-08-02T00:57:56.359Z,19.52
2018-08-02T00:59:01.941Z,19.51
2018-08-02T01:00:06.732Z,19.47
2018-08-02T01:01:11.606Z,19.47
2018-08-02T01:02:17.778Z,19.46
2018-08-02T01:03:22.815Z,19.48
2018-08-02T01:04:28.198Z,19.56
2018-08-02T01:05:32.884Z,19.62
2018-08-02T01:06:37.562Z,19.62
2018-08-02T01:07:42.251Z,19.61
2018-08-02T01:08:47.050Z,19.62
2018-08-02T01:09:52.261Z,19.58
2018-08-02T01:10:56.955Z,19.58
2018-08-02T01:12:01.758Z,19.65
2018-08-02T01:13:06.422Z,19.65
2018-08-02T01:14:11.199Z,19.59
2018-08-02T01:15:17.342Z,19.56
2018-08-02T01:16:22.394Z,19.45
2018-08-02T01:17:27.097Z,19.33
2018-08-02T01:18:31.761Z,19.30
2018-08-02T01:19:36.497Z,19.41
2018-08-02T01:20:41.233Z,19.45
2018-08-02T01:21:46.009Z,19.29
2018-08-02T01:22:51.058Z,19.15
2018-08-02T01:23:55.745Z,19.21
2018-08-02T01:25:00.465Z,19.22
2018-08-02T01:26:05.166Z,19.17
2018-08-02T01:27:09.936Z,18.96
2018-08-02T01:28:14.654Z,18.88
2018-08-02T01:29:19.834Z,18.92
2018-08-02T01:30:25.083Z,19.02
2018-08-02T01:31:29.780Z,19.07
2018-08-02T01:32:34.895Z,19.08
2018-08-02T01:33:39.619Z,19.10
2018-08-02T01:34:44.379Z,19.09
2018-08-02T01:35:49.621Z,19.02
2018-08-02T01:36:54.329Z,18.95
2018-08-02T01:37:59.096Z,18.95
2018-08-02T01:39:04.106Z,18.96
2018-08-02T01:40:08.831Z,19.08
2018-08-02T01:41:13.530Z,19.14
2018-08-02T01:42:18.653Z,19.23
2018-08-02T01:43:23.451Z,19.25
2018-08-02T01:44:33.338Z,19.23
2018-08-02T01:45:38.048Z,19.27
2018-08-02T01:46:42.770Z,19.30
2018-08-02T01:47:47.327Z,19.29
2018-08-02T01:48:52.344Z,19.24
2018-08-02T01:49:56.975Z,19.19
2018-08-02T01:51:01.621Z,19.15
2018-08-02T01:52:06.252Z,18.95
2018-08-02T01:53:10.899Z,18.92
2018-08-02T01:54:15.558Z,18.98
2018-08-02T01:55:20.585Z,19.00
2018-08-02T01:56:25.186Z,19.04
2018-08-02T01:57:29.797Z,19.09
2018-08-02T01:58:34.483Z,19.14
2018-08-02T01:59:39.216Z,18.93
2018-08-02T02:00:43.932Z,18.84
2018-08-02T02:01:49.088Z,18.80
2018-08-02T02:02:53.740Z,18.76
2018-08-02T02:03:58.345Z,18.60
2018-08-02T02:05:02.918Z,18.61
2018-08-02T02:06:07.514Z,18.56
2018-08-02T02:07:12.097Z,18.61
2018-08-02T02:08:17.124Z,18.73
2018-08-02T02:09:21.767Z,18.79
2018-08-02T02:10:26.327Z,18.86
2018-08-02T02:11:30.908Z,18.96
2018-08-02T02:12:35.552Z,19.02
2018-08-02T02:13:40.155Z,19.03
2018-08-02T02:14:45.128Z,19.12
2018-08-02T02:15:50.469Z,19.12
2018-08-02T02:16:54.999Z,19.16
2018-08-02T02:17:59.536Z,19.18
2018-08-02T02:19:04.037Z,19.24
2018-08-02T02:20:08.588Z,19.26
2018-08-02T02:21:13.665Z,19.30
2018-08-02T02:22:18.228Z,19.35
2018-08-02T02:23:22.798Z,19.32
2018-08-02T02:24:27.338Z,19.34
2018-08-02T02:25:31.890Z,19.23
2018-08-02T02:26:36.460Z,19.21
2018-08-02T02:27:41.563Z,19.14
2018-08-02T02:28:46.150Z,19.18
2018-08-02T02:29:50.724Z,19.20
2018-08-02T02:30:55.254Z,19.25
2018-08-02T02:31:59.799Z,19.27
2018-08-02T02:33:04.455Z,19.27
2018-08-02T02:34:09.413Z,19.30
2018-08-02T02:35:13.979Z,19.32
2018-08-02T02:36:18.579Z,19.34
2018-08-02T02:37:23.257Z,19.34
2018-08-02T02:38:27.808Z,19.36
2018-08-02T02:39:33.338Z,19.32
2018-08-02T02:40:38.326Z,19.24
2018-08-02T02:41:42.862Z,19.09
2018-08-02T02:42:47.432Z,18.98
2018-08-02T02:43:52.079Z,18.96
2018-08-02T02:44:56.645Z,18.99
2018-08-02T02:46:01.285Z,19.03
2018-08-02T02:47:06.228Z,18.79
2018-08-02T02:48:10.768Z,18.71
2018-08-02T02:49:15.673Z,18.72
2018-08-02T02:50:20.660Z,18.70
2018-08-02T02:51:25.232Z,18.46
2018-08-02T02:52:29.836Z,18.46
2018-08-02T02:53:34.906Z,18.52
2018-08-02T02:54:41.208Z,18.53
2018-08-02T02:55:45.827Z,18.49
2018-08-02T02:56:50.413Z,18.26
2018-08-02T02:57:54.988Z,18.04
2018-08-02T02:58:59.510Z,17.90
2018-08-02T03:00:04.629Z,17.80
2018-08-02T03:01:09.389Z,17.73
2018-08-02T03:02:14.066Z,17.76
2018-08-02T03:03:18.836Z,17.71
2018-08-02T03:04:23.564Z,17.78
2018-08-02T03:05:28.295Z,17.93
2018-08-02T03:06:32.999Z,17.98
2018-08-02T03:07:37.688Z,18.12
2018-08-02T03:08:42.392Z,18.27
2018-08-02T03:09:47.093Z,18.25
2018-08-02T03:10:51.778Z,18.30
2018-08-02T03:11:57.002Z,18.30
2018-08-02T03:13:01.685Z,18.21
2018-08-02T03:14:06.419Z,18.24
2018-08-02T03:15:11.288Z,18.22
2018-08-02T03:16:15.978Z,18.07
2018-08-02T03:17:20.674Z,17.96
2018-08-02T03:18:25.382Z,17.99
2018-08-02T03:19:30.077Z,17.86
2018-08-02T03:20:34.757Z,17.91
2018-08-02T03:21:39.424Z,17.90
2018-08-02T03:22:44.149Z,17.93
2018-08-02T03:23:48.833Z,18.03
2018-08-02T03:24:54.098Z,17.96
2018-08-02T03:25:58.849Z,17.73
2018-08-02T03:27:03.589Z,17.71
2018-08-02T03:28:10.006Z,17.76
2018-08-02T03:29:14.723Z,17.81
2018-08-02T03:30:19.471Z,17.70
2018-08-02T03:31:24.692Z,17.51
2018-08-02T03:32:30.027Z,17.58
2018-08-02T03:33:34.737Z,17.59
2018-08-02T03:34:39.432Z,17.62
2018-08-02T03:50:11.543Z,17.48
2018-08-02T03:51:16.242Z,17.49
2018-08-02T03:52:20.958Z,17.47
2018-08-02T03:53:25.676Z,17.38
2018-08-02T03:54:30.390Z,17.21
2018-08-02T03:55:35.176Z,17.05
2018-08-02T03:56:39.878Z,17.03
2018-08-02T03:57:44.538Z,16.91
2018-08-02T03:58:49.246Z,16.80
2018-08-02T03:59:53.939Z,16.70
2018-08-02T04:00:58.630Z,16.59
2018-08-02T04:02:03.305Z,16.52
2018-08-02T04:03:08.053Z,16.50
2018-08-02T04:04:12.734Z,16.46
2018-08-02T04:05:17.374Z,16.47
2018-08-02T04:06:22.453Z,16.45
2018-08-02T04:07:27.148Z,16.54
2018-08-02T04:08:32.780Z,16.71
2018-08-02T04:09:37.484Z,16.79
2018-08-02T04:10:42.239Z,16.94
2018-08-02T04:11:46.974Z,16.87
2018-08-02T04:12:52.192Z,16.78
2018-08-02T04:13:56.925Z,16.64
2018-08-02T04:15:01.665Z,16.60
2018-08-02T04:16:06.317Z,16.51
2018-08-02T04:17:11.265Z,16.46
2018-08-02T04:18:15.992Z,16.36
2018-08-02T04:19:21.052Z,16.31
2018-08-02T04:20:25.773Z,16.45
2018-08-02T04:21:30.463Z,16.54
2018-08-02T04:22:35.171Z,16.61
2018-08-02T04:23:39.902Z,16.62
2018-08-02T04:24:44.600Z,16.60
2018-08-02T04:25:49.769Z,16.52
2018-08-02T04:26:54.424Z,16.39
2018-08-02T04:27:59.142Z,16.36
2018-08-02T04:29:03.927Z,16.35
2018-08-02T04:30:08.602Z,16.36
2018-08-02T04:31:13.873Z,16.40
2018-08-02T04:32:18.922Z,16.45
2018-08-02T04:33:25.117Z,16.50
2018-08-02T04:34:29.803Z,16.58
2018-08-02T04:35:34.451Z,16.66
2018-08-02T04:36:39.111Z,16.72
2018-08-02T04:37:44.752Z,16.77
2018-08-02T04:38:50.807Z,16.80
2018-08-02T04:39:55.842Z,16.85
2018-08-02T04:41:00.606Z,16.93
2018-08-02T04:42:05.334Z,16.99
2018-08-02T04:43:10.689Z,16.93
2018-08-02T04:44:16.211Z,16.86
2018-08-02T04:45:21.555Z,16.83
2018-08-02T04:46:26.254Z,16.91
2018-08-02T04:47:30.951Z,16.98
2018-08-02T04:48:36.498Z,17.07
2018-08-02T04:49:41.255Z,17.20
2018-08-02T04:50:45.928Z,17.32
2018-08-02T04:51:51.141Z,17.34
2018-08-02T04:52:55.831Z,17.31
2018-08-02T04:54:01.102Z,17.29
2018-08-02T04:55:07.492Z,17.37
2018-08-02T04:56:12.192Z,17.43
2018-08-02T04:57:17.843Z,17.48
2018-08-02T04:58:22.938Z,17.52
2018-08-02T04:59:27.593Z,17.57
2018-08-02T05:00:32.339Z,17.63
2018-08-02T05:01:37.020Z,17.69
2018-08-02T05:02:41.786Z,17.71
2018-08-02T05:03:46.477Z,17.75
2018-08-02T05:04:51.422Z,17.82
2018-08-02T05:05:56.072Z,17.83
2018-08-02T05:07:00.745Z,17.86
2018-08-02T05:08:05.516Z,17.93
2018-08-02T05:09:11.847Z,17.94
2018-08-02T05:10:16.864Z,17.97
2018-08-02T05:11:22.562Z,18.01
2018-08-02T05:12:27.283Z,18.06
2018-08-02T05:13:32.065Z,18.03
2018-08-02T05:14:36.848Z,18.09
2018-08-02T05:15:41.583Z,18.11
2018-08-02T05:16:47.400Z,18.08
2018-08-02T05:17:52.321Z,18.10
2018-08-02T05:18:57.308Z,18.17
2018-08-02T05:20:02.029Z,18.22
2018-08-02T05:21:06.925Z,18.26
2018-08-02T05:22:16.634Z,18.29
2018-08-02T05:23:21.298Z,18.34
2018-08-02T05:24:27.897Z,18.35
2018-08-02T05:25:34.221Z,18.37
2018-08-02T05:26:38.915Z,18.39
2018-08-02T05:27:43.658Z,18.35
2018-08-02T05:28:48.700Z,18.30
2018-08-02T05:29:54.324Z,18.28
2018-08-02T05:30:59.020Z,18.35
2018-08-02T05:32:04.741Z,18.42
2018-08-02T05:33:09.395Z,18.24
2018-08-02T05:34:14.764Z,18.16
2018-08-02T05:35:21.609Z,18.23
2018-08-02T05:36:26.690Z,18.45
2018-08-02T05:37:31.027Z,18.49
2018-08-02T05:38:36.373Z,18.31
2018-08-02T05:39:41.096Z,18.16
2018-08-02T05:40:45.834Z,17.80
2018-08-02T05:41:50.852Z,17.70
2018-08-02T05:42:55.597Z,17.68
2018-08-02T05:44:00.316Z,17.67
2018-08-02T05:45:05.125Z,17.78
2018-08-02T05:46:11.272Z,17.86
2018-08-02T05:47:16.016Z,17.97
2018-08-02T05:48:21.320Z,18.11
2018-08-02T05:49:27.106Z,18.19
2018-08-02T05:50:31.752Z,18.23
2018-08-02T05:51:38.679Z,18.25
2018-08-02T05:52:44.146Z,18.29
2018-08-02T05:53:49.336Z,18.30
2018-08-02T05:54:54.453Z,18.28
2018-08-02T05:55:59.167Z,18.26
2018-08-02T05:57:03.841Z,18.30
2018-08-02T05:58:08.565Z,18.37
2018-08-02T05:59:13.292Z,18.46
2018-08-02T06:00:18.497Z,18.57
2018-08-02T06:01:23.379Z,18.70
2018-08-02T06:02:28.306Z,18.79
2018-08-02T06:03:33.190Z,18.76
2018-08-02T06:04:37.971Z,18.79
2018-08-02T06:05:42.738Z,18.88
2018-08-02T06:06:48.039Z,18.91
2018-08-02T06:07:52.991Z,18.94
2018-08-02T06:08:57.726Z,19.02
2018-08-02T06:10:02.532Z,19.11
2018-08-02T06:11:07.498Z,19.19
2018-08-02T06:12:12.581Z,19.27
2018-08-02T06:13:17.659Z,19.39
2018-08-02T06:14:22.436Z,19.34
2018-08-02T06:15:27.179Z,19.28
2018-08-02T06:16:32.102Z,19.31
2018-08-02T06:17:37.673Z,19.36
2018-08-02T06:18:42.934Z,19.49
2018-08-02T06:19:47.650Z,19.61
2018-08-02T06:20:52.385Z,19.72
2018-08-02T06:21:57.148Z,19.74
2018-08-02T06:23:01.900Z,19.83
2018-08-02T06:24:06.675Z,19.89
2018-08-02T06:25:11.853Z,19.95
2018-08-02T06:26:18.032Z,20.00
2018-08-02T06:27:23.068Z,20.04
2018-08-02T06:28:28.486Z,19.99
2018-08-02T06:29:33.160Z,19.98
2018-08-02T06:30:39.426Z,20.04
2018-08-02T06:31:45.362Z,20.07
2018-08-02T06:32:50.676Z,19.94
2018-08-02T06:33:56.200Z,19.80
2018-08-02T06:35:00.973Z,19.76
2018-08-02T06:36:05.670Z,19.87
2018-08-02T06:37:10.936Z,19.93
2018-08-02T06:38:16.031Z,20.04
2018-08-02T06:39:20.716Z,20.10
2018-08-02T06:40:25.537Z,20.17
2018-08-02T06:41:30.422Z,20.32
2018-08-02T06:42:35.102Z,20.36
2018-08-02T06:43:41.053Z,20.48
2018-08-02T06:44:46.241Z,20.53
2018-08-02T06:45:51.038Z,20.61
2018-08-02T06:46:55.925Z,20.65
2018-08-02T06:48:01.798Z,20.59
2018-08-02T06:49:07.449Z,20.53
2018-08-02T06:50:12.726Z,20.56
2018-08-02T06:51:17.857Z,20.59
2018-08-02T06:52:23.076Z,20.67
2018-08-02T06:53:29.031Z,20.81
2018-08-02T06:54:33.741Z,20.92
2018-08-02T06:55:38.390Z,20.98
2018-08-02T06:56:43.098Z,20.97
2018-08-02T06:57:49.111Z,20.99
2018-08-02T06:58:54.411Z,21.06
2018-08-02T06:59:59.201Z,21.13
2018-08-02T07:01:04.791Z,21.26
2018-08-02T07:02:09.779Z,21.39
2018-08-02T07:03:14.488Z,21.47
2018-08-02T07:04:20.236Z,21.51
2018-08-02T07:05:24.933Z,21.54
2018-08-02T07:06:30.212Z,21.54
2018-08-02T07:07:36.642Z,21.56
2018-08-02T07:08:41.318Z,21.54
2018-08-02T07:09:46.210Z,21.47
2018-08-02T07:10:51.415Z,21.59
2018-08-02T07:11:57.711Z,21.66
2018-08-02T07:13:03.678Z,21.69
2018-08-02T07:14:08.643Z,21.71
2018-08-02T07:15:13.438Z,21.70
2018-08-02T07:16:19.797Z,21.78
2018-08-02T07:17:25.837Z,21.83
2018-08-02T07:18:30.548Z,21.96
2018-08-02T07:19:35.353Z,22.05
2018-08-02T07:20:41.546Z,22.11
2018-08-02T07:21:46.431Z,22.14
2018-08-02T07:22:52.072Z,22.20
2018-08-02T07:23:57.566Z,22.25
2018-08-02T07:25:02.327Z,22.29
2018-08-02T07:26:07.736Z,22.43
2018-08-02T07:27:13.479Z,22.48
2018-08-02T07:28:19.463Z,22.57
2018-08-02T07:29:25.284Z,22.66
2018-08-02T07:30:32.504Z,22.65
2018-08-02T07:31:37.611Z,22.55
2018-08-02T07:32:43.037Z,22.61
2018-08-02T07:33:47.821Z,22.67
2018-08-02T07:34:52.529Z,22.80
2018-08-02T07:35:58.319Z,22.92
2018-08-02T07:37:04.785Z,23.05
2018-08-02T07:38:10.584Z,23.06
2018-08-02T07:39:16.282Z,23.04
2018-08-02T07:40:21.233Z,23.20
2018-08-02T07:41:30.036Z,23.30
2018-08-02T07:42:35.274Z,23.22
2018-08-02T07:43:40.347Z,23.24
2018-08-02T07:44:46.473Z,23.36
2018-08-02T07:45:51.168Z,23.46
2018-08-02T07:46:56.691Z,23.51
2018-08-02T07:48:02.385Z,23.59
2018-08-02T07:49:07.163Z,23.62
2018-08-02T07:50:12.359Z,23.82
2018-08-02T07:51:18.693Z,23.97
2018-08-02T07:52:31.578Z,24.08
2018-08-02T07:53:38.668Z,24.23
2018-08-02T07:54:44.824Z,24.21
2018-08-02T07:55:51.612Z,24.24
2018-08-02T07:56:59.070Z,24.23
2018-08-02T07:58:04.564Z,24.35
2018-08-02T07:59:09.295Z,24.46
2018-08-02T08:00:14.300Z,24.39
2018-08-02T08:01:19.358Z,24.34
2018-08-02T08:02:24.995Z,24.46
2018-08-02T08:03:31.435Z,24.60
2018-08-02T08:04:36.270Z,24.68
2018-08-02T08:05:41.317Z,24.69
2018-08-02T08:06:46.051Z,24.56
2018-08-02T08:07:51.958Z,24.63
2018-08-02T08:08:57.308Z,24.67
2018-08-02T08:10:02.247Z,24.79
2018-08-02T08:11:08.090Z,24.92
2018-08-02T08:12:12.786Z,25.02
2018-08-02T08:13:17.488Z,25.22
2018-08-02T08:14:22.430Z,25.30
2018-08-02T08:15:27.616Z,25.31
2018-08-02T08:16:33.161Z,25.24
2018-08-02T08:17:38.794Z,25.21
2018-08-02T08:18:43.527Z,25.19
2018-08-02T08:19:50.230Z,25.21
2018-08-02T08:20:56.475Z,25.29
2018-08-02T08:22:03.308Z,25.30
2018-08-02T08:23:08.651Z,25.47
2018-08-02T08:24:13.943Z,25.54
2018-08-02T08:25:18.762Z,25.69
2018-08-02T08:26:27.373Z,25.95
2018-08-02T08:27:32.172Z,26.05
2018-08-02T08:28:37.243Z,26.19
2018-08-02T08:29:42.407Z,26.14
2018-08-02T08:30:48.050Z,26.11
2018-08-02T08:31:53.017Z,26.25
2018-08-02T08:32:57.732Z,26.41
2018-08-02T08:34:03.633Z,26.37
2018-08-02T08:35:10.707Z,26.32
2018-08-02T08:36:15.549Z,26.36
2018-08-02T08:37:24.248Z,26.30
2018-08-02T08:38:25.125Z,26.14
2018-08-02T08:39:31.998Z,25.97
2018-08-02T08:40:36.769Z,25.91
2018-08-02T08:41:41.973Z,25.98
2018-08-02T08:42:47.591Z,26.06
2018-08-02T08:43:52.751Z,26.14
2018-08-02T08:44:57.545Z,26.37
2018-08-02T08:46:02.216Z,26.42
2018-08-02T08:47:07.994Z,26.27
2018-08-02T08:48:13.037Z,26.32
2018-08-02T08:49:23.882Z,26.52
2018-08-02T08:50:29.137Z,26.68
2018-08-02T08:51:34.862Z,26.70
2018-08-02T08:52:39.627Z,26.88
2018-08-02T08:53:44.414Z,26.99
2018-08-02T08:55:12.538Z,27.09
2018-08-02T09:08:41.063Z,28.05
2018-08-02T09:09:56.089Z,28.00
2018-08-02T09:11:28.407Z,27.83
2018-08-02T09:14:01.171Z,27.53
2018-08-02T09:16:44.576Z,27.38
2018-08-02T09:17:55.641Z,27.49
2018-08-02T09:19:15.309Z,27.71
2018-08-02T09:22:10.172Z,27.89
2018-08-02T09:23:29.614Z,28.05
2018-08-02T09:24:49.165Z,28.24
2018-08-02T09:26:02.026Z,28.34
2018-08-02T09:28:28.162Z,28.60
2018-08-02T09:29:36.319Z,28.67
2018-08-02T09:30:49.361Z,28.80
2018-08-02T09:31:54.765Z,28.80
2018-08-02T09:33:01.020Z,28.47
2018-08-02T09:34:06.674Z,27.95
2018-08-02T09:35:13.541Z,27.96
2018-08-02T09:37:36.726Z,28.17
2018-08-02T09:38:45.665Z,27.92
2018-08-02T09:39:55.660Z,28.04
2018-08-02T09:41:03.279Z,28.22
2018-08-02T09:47:13.137Z,28.37
2018-08-02T09:48:27.347Z,28.92
2018-08-02T10:18:10.423Z,29.88
2018-08-02T10:19:32.475Z,29.74
2018-08-02T10:23:33.359Z,29.13
2018-08-02T10:24:42.996Z,28.86
2018-08-02T10:25:50.843Z,28.75
2018-08-02T10:26:56.107Z,28.90
2018-08-02T10:28:02.298Z,29.02
2018-08-02T10:29:07.047Z,29.03
2018-08-02T10:30:12.912Z,29.08
2018-08-02T10:31:17.735Z,29.35
2018-08-02T10:32:23.722Z,29.56
2018-08-02T10:33:28.627Z,29.85
2018-08-02T10:34:33.282Z,29.96
2018-08-02T10:35:39.013Z,30.16
2018-08-02T10:36:43.643Z,30.27
2018-08-02T10:37:49.127Z,30.44
2018-08-02T10:38:56.026Z,30.55
2018-08-02T10:40:01.178Z,30.46
2018-08-02T10:42:33.625Z,30.35
2018-08-02T10:43:38.249Z,29.99
2018-08-02T10:44:44.156Z,29.71
2018-08-02T10:45:49.147Z,29.41
2018-08-02T10:46:55.816Z,29.37
2018-08-02T10:48:01.385Z,29.41
2018-08-02T10:49:06.731Z,29.77
2018-08-02T10:50:16.683Z,30.01
2018-08-02T10:51:21.371Z,29.86
2018-08-02T10:52:29.119Z,30.06
2018-08-02T10:53:35.862Z,30.15
2018-08-02T10:54:41.419Z,30.32
2018-08-02T10:55:46.231Z,30.34
2018-08-02T10:56:50.972Z,30.52
2018-08-02T10:57:57.397Z,30.68
2018-08-02T10:59:03.511Z,30.75
2018-08-02T11:00:09.700Z,30.83
2018-08-02T11:01:18.962Z,30.88
2018-08-02T11:02:25.464Z,31.02
2018-08-02T11:03:32.028Z,31.25
2018-08-02T11:04:38.507Z,31.38
2018-08-02T11:05:44.279Z,30.70
2018-08-02T11:06:48.890Z,30.13
2018-08-02T11:07:53.794Z,30.04
2018-08-02T11:08:58.588Z,30.08
2018-08-02T11:10:04.244Z,30.23
2018-08-02T11:11:09.898Z,30.58
2018-08-02T11:12:15.520Z,30.84
2018-08-02T11:13:21.623Z,31.01
2018-08-02T11:14:27.331Z,30.79
2018-08-02T11:15:33.599Z,30.62
2018-08-02T11:16:40.892Z,30.62
2018-08-02T11:17:51.303Z,30.95
2018-08-02T11:18:57.297Z,30.99
2018-08-02T11:20:03.878Z,31.26
2018-08-02T11:21:08.914Z,31.81
2018-08-02T11:22:16.824Z,31.66
2018-08-02T11:23:22.147Z,31.35
2018-08-02T11:24:27.860Z,31.43
2018-08-02T11:25:35.048Z,31.62
2018-08-02T11:26:41.219Z,32.01
2018-08-02T11:27:45.911Z,32.37
2018-08-02T11:28:51.180Z,32.13
2018-08-02T11:29:57.231Z,31.69
2018-08-02T11:31:02.825Z,31.46
2018-08-02T11:32:07.558Z,31.46
2018-08-02T11:33:12.566Z,31.58
2018-08-02T11:34:17.576Z,31.62
2018-08-02T11:35:22.323Z,31.16
2018-08-02T11:36:28.699Z,30.96
2018-08-02T11:37:34.566Z,30.59
2018-08-02T11:38:41.204Z,30.36
2018-08-02T11:39:49.801Z,30.16
2018-08-02T11:40:54.749Z,30.07
2018-08-02T11:41:59.320Z,30.28
2018-08-02T11:43:04.538Z,30.46
2018-08-02T11:44:11.416Z,30.39
2018-08-02T11:45:16.026Z,30.24
2018-08-02T11:46:21.592Z,30.29
2018-08-02T11:47:27.187Z,30.55
2018-08-02T11:48:32.947Z,30.44
2018-08-02T11:49:39.052Z,30.56
2018-08-02T11:50:45.001Z,31.17
2018-08-02T11:51:49.830Z,32.02
2018-08-02T11:52:56.795Z,32.87
2018-08-02T11:54:03.197Z,33.37
2018-08-02T11:55:09.442Z,33.37
2018-08-02T11:56:16.763Z,32.85
2018-08-02T11:57:21.959Z,32.64
2018-08-02T11:58:26.689Z,32.73
2018-08-02T11:59:33.532Z,32.79
2018-08-02T12:00:38.788Z,33.02
2018-08-02T12:01:44.463Z,33.17
2018-08-02T12:02:49.346Z,33.01
2018-08-02T12:03:55.080Z,32.96
2018-08-02T12:04:59.882Z,33.07
2018-08-02T12:06:06.259Z,33.24
2018-08-02T12:07:11.087Z,33.32
2018-08-02T12:08:17.654Z,33.21
2018-08-02T12:09:22.528Z,33.60
2018-08-02T12:10:27.720Z,33.97
2018-08-02T12:11:33.455Z,34.10
2018-08-02T12:12:39.272Z,34.60
2018-08-02T12:13:46.844Z,35.17
2018-08-02T12:14:51.590Z,35.65
2018-08-02T12:15:59.760Z,35.48
2018-08-02T12:17:04.973Z,33.56
2018-08-02T12:18:13.424Z,33.23
2018-08-02T12:19:19.553Z,33.24
2018-08-02T12:20:27.628Z,33.59
2018-08-02T12:21:34.713Z,34.46
2018-08-02T12:22:42.182Z,33.73
2018-08-02T12:23:49.736Z,33.78
2018-08-02T12:24:55.234Z,33.24
2018-08-02T12:26:10.345Z,33.49
2018-08-02T12:27:18.403Z,33.63
2018-08-02T12:28:24.691Z,33.58
2018-08-02T12:29:30.575Z,33.19
2018-08-02T12:30:36.359Z,32.65
2018-08-02T12:31:41.109Z,32.50
2018-08-02T12:32:45.824Z,32.74
2018-08-02T12:35:03.691Z,33.12
2018-08-02T12:36:08.639Z,32.93
2018-08-02T12:37:13.543Z,32.21
2018-08-02T12:38:18.289Z,31.81
2018-08-02T12:39:24.088Z,31.62
2018-08-02T12:40:28.921Z,31.63
2018-08-02T12:41:33.737Z,31.35
2018-08-02T12:42:38.927Z,31.34
2018-08-02T12:43:44.166Z,31.38
2018-08-02T12:44:49.575Z,31.37
2018-08-02T12:45:54.326Z,31.21
2018-08-02T12:47:00.730Z,31.12
2018-08-02T12:48:05.612Z,30.86
2018-08-02T12:49:10.832Z,30.92
2018-08-02T12:50:16.149Z,30.95
2018-08-02T12:51:20.954Z,30.96
2018-08-02T12:52:26.820Z,30.91
2018-08-02T12:53:32.586Z,30.84
2018-08-02T12:54:38.774Z,30.97
2018-08-02T12:55:44.001Z,31.16
2018-08-02T12:56:50.313Z,31.22
2018-08-02T12:57:55.224Z,30.93
2018-08-02T12:59:00.031Z,30.82
2018-08-02T13:00:05.369Z,31.39
2018-08-02T13:01:11.226Z,31.83
2018-08-02T13:02:16.923Z,31.57
2018-08-02T13:03:24.078Z,31.47
2018-08-02T13:04:29.813Z,31.44
2018-08-02T13:05:34.608Z,31.44
2018-08-02T13:06:39.923Z,31.53
2018-08-02T13:07:46.367Z,31.59
2018-08-02T13:08:51.732Z,31.75
2018-08-02T13:09:56.725Z,31.62
2018-08-02T13:11:04.538Z,31.48
2018-08-02T13:12:11.456Z,31.58
2018-08-02T13:13:19.909Z,31.73
2018-08-02T13:14:25.606Z,31.82
2018-08-02T13:15:33.867Z,31.96
2018-08-02T13:16:39.122Z,32.10
2018-08-02T13:17:44.189Z,32.23
2018-08-02T13:18:48.788Z,32.16
2018-08-02T13:19:53.526Z,32.01
2018-08-02T13:20:58.232Z,31.86
2018-08-02T13:22:04.793Z,31.88
2018-08-02T13:23:09.431Z,31.97
2018-08-02T13:24:14.185Z,32.15
2018-08-02T13:25:20.767Z,32.47
2018-08-02T13:26:25.371Z,33.02
2018-08-02T13:27:31.184Z,33.71
2018-08-02T13:28:35.860Z,34.00
2018-08-02T13:29:40.505Z,34.03
2018-08-02T13:30:46.558Z,34.11
2018-08-02T13:31:51.410Z,34.31
2018-08-02T13:32:56.173Z,34.56
2018-08-02T13:34:01.753Z,34.80
2018-08-02T13:35:08.253Z,34.75
2018-08-02T13:36:13.236Z,33.68
2018-08-02T13:37:18.007Z,33.07
2018-08-02T13:38:22.824Z,33.62
2018-08-02T13:39:27.478Z,33.79
2018-08-02T13:40:32.544Z,33.40
2018-08-02T13:41:37.254Z,33.07
2018-08-02T13:42:41.895Z,33.72
2018-08-02T13:43:48.715Z,34.34
2018-08-02T13:44:53.450Z,34.48
2018-08-02T13:45:58.923Z,34.58
2018-08-02T13:47:04.013Z,34.64
2018-08-02T13:48:09.094Z,34.44
2018-08-02T13:49:14.795Z,33.98
2018-08-02T13:50:22.050Z,33.80
2018-08-02T13:51:27.286Z,33.80
2018-08-02T13:52:31.942Z,33.67
2018-08-02T13:53:36.577Z,33.43
2018-08-02T13:54:41.294Z,33.17
2018-08-02T13:55:45.945Z,33.07
2018-08-02T13:56:51.219Z,33.05
2018-08-02T13:57:56.642Z,33.23
2018-08-02T13:59:01.584Z,33.58
2018-08-02T14:00:06.230Z,34.02
2018-08-02T14:01:11.473Z,34.41
2018-08-02T14:02:16.185Z,34.54
2018-08-02T14:03:20.812Z,34.53
2018-08-02T14:04:26.365Z,34.91
2018-08-02T14:05:33.805Z,34.86
2018-08-02T14:06:39.405Z,34.80
2018-08-02T14:07:44.736Z,34.91
2018-08-02T14:08:50.461Z,35.06
2018-08-02T14:09:56.026Z,35.26
2018-08-02T14:11:00.557Z,35.22
2018-08-02T14:12:07.165Z,34.67
2018-08-02T14:13:13.272Z,34.85
2018-08-02T14:14:18.808Z,35.10
2018-08-02T14:15:26.442Z,35.84
2018-08-02T14:16:32.060Z,35.92
2018-08-02T14:17:37.322Z,35.86
2018-08-02T14:18:44.805Z,35.66
2018-08-02T14:19:51.323Z,35.59
2018-08-02T14:20:57.419Z,36.13
2018-08-02T14:22:04.686Z,36.25
2018-08-02T14:23:16.076Z,35.64
2018-08-02T14:24:20.691Z,35.78
2018-08-02T14:25:25.608Z,35.18
2018-08-02T14:26:31.471Z,35.18
2018-08-02T14:27:36.436Z,35.20
2018-08-02T14:28:41.097Z,35.79
2018-08-02T14:29:47.031Z,36.33
2018-08-02T14:30:52.297Z,36.69
2018-08-02T14:31:58.381Z,37.02
2018-08-02T14:51:08.511Z,35.75
2018-08-02T14:52:13.462Z,35.27
2018-08-02T14:53:18.395Z,34.59
2018-08-02T14:54:23.927Z,34.35
2018-08-02T14:55:28.483Z,34.38
2018-08-02T14:56:35.296Z,34.49
2018-08-02T14:57:41.379Z,34.30
2018-08-02T14:58:46.989Z,34.37
2018-08-02T14:59:51.561Z,34.39
2018-08-02T15:00:57.459Z,34.47
2018-08-02T15:02:02.641Z,34.54
2018-08-02T15:03:07.764Z,34.54
2018-08-02T15:04:12.566Z,34.35
2018-08-02T15:05:17.923Z,34.26
2018-08-02T15:06:22.853Z,34.13
2018-08-02T15:07:27.589Z,33.82
2018-08-02T15:08:32.328Z,33.75
2018-08-02T15:09:39.301Z,33.81
2018-08-02T15:10:45.353Z,33.79
2018-08-02T15:11:51.302Z,33.78
2018-08-02T15:12:56.349Z,33.57
2018-08-02T15:14:01.510Z,33.58
2018-08-02T15:15:08.025Z,33.16
2018-08-02T15:16:12.882Z,33.26
2018-08-02T15:17:19.226Z,33.43
2018-08-02T15:18:26.131Z,33.24
2018-08-02T15:19:30.744Z,33.23
2018-08-02T15:20:36.545Z,33.54
2018-08-02T15:21:42.772Z,33.76
2018-08-02T15:22:49.755Z,33.86
2018-08-02T15:23:54.495Z,34.54
2018-08-02T15:24:59.615Z,34.53
2018-08-02T15:26:10.663Z,34.70
2018-08-02T15:27:17.436Z,34.95
2018-08-02T15:28:23.826Z,35.40
2018-08-02T15:29:30.400Z,35.75
2018-08-02T15:30:37.959Z,36.23
2018-08-02T15:31:47.350Z,36.59
2018-08-02T15:32:53.663Z,36.64
2018-08-02T15:33:59.324Z,36.31
2018-08-02T15:35:07.899Z,36.01
2018-08-02T15:36:13.308Z,35.30